Latest Weather Observations for Westmere

IDV60801

Issued at 10:02 am EDT Thursday 18 December 2014 (issued every 30 minutes, with the page automatically refreshed every 10 minutes)

About weather observations | Map of weather stations | Latest weather observations for VIC | Other Formats
Station Details ID: 089112 Name: WESTMERE Lat: -37.71 Lon: 142.94 Height: 226.0 m
Data from the previous 72 hours. | See also: Recent months at Westmere
Date/Time
EDT
Temp
°C
App
Temp
°C
Dew
Point
Rel
Hum
%
Delta-T
°C
Wind Press
QNH
hPa
Press
MSL
hPa
Rain
since 9 am
mm
Dir
 
Spd
km/h
Gust
km/h
Spd
kts
Gust
kts
18/10:00am 17.3 11.4 5.9 47 5.6 WNW 26 37 14 20 1007.2 1006.7 0.0
18/09:30am 18.2 12.3 5.8 44 6.2 NW 26 43 14 23 1006.8 1006.3 0.0
18/09:00am 17.1 12.7 6.6 50 5.3 WNW 19 28 10 15 1007.0 1006.5 0.0
18/08:30am 16.1 12.5 6.8 54 4.6 NW 15 28 8 15 1007.0 1006.5 0.0
18/08:00am 14.0 10.4 6.8 62 3.5 NW 15 20 8 11 1006.7 1006.2 0.0
18/07:30am 12.4 10.1 7.5 72 2.4 NNW 9 17 5 9 1006.5 1006.0 0.0
18/07:00am 8.4 6.4 6.4 87 0.9 N 6 9 3 5 1006.4 1005.9 0.0
18/06:30am 6.6 3.9 5.6 93 0.5 NNW 9 9 5 5 1006.0 1005.5 0.0
18/06:00am 4.5 1.9 3.2 91 0.5 NNW 6 6 3 3 1005.8 1005.3 0.0
18/05:30am 6.1 3.3 5.1 93 0.4 NW 9 13 5 7 1005.7 1005.2 0.0
18/05:00am 5.2 2.7 4.0 92 0.5 NNW 6 9 3 5 1005.6 1005.1 0.0
18/04:30am 5.3 3.2 3.8 90 0.6 NNW 4 6 2 3 1005.4 1004.9 0.0
18/04:00am 6.0 4.7 4.3 89 0.7 CALM 0 0 0 0 1005.8 1005.3 0.0
18/03:30am 6.5 5.2 4.2 85 1.0 CALM 0 0 0 0 1005.8 1005.3 0.0
18/03:00am 7.3 6.2 5.1 86 1.0 CALM 0 0 0 0 1006.1 1005.6 0.0
18/02:30am 8.2 7.2 5.8 85 1.1 CALM 0 0 0 0 1006.3 1005.8 0.0
18/02:00am 7.4 5.6 5.2 86 1.0 SSE 4 6 2 3 1006.5 1006.0 0.0
18/01:30am 7.1 4.6 4.6 84 1.1 SSE 7 7 4 4 1006.9 1006.4 0.0
18/01:00am 8.6 6.3 5.5 81 1.4 S 7 9 4 5 1007.2 1006.7 0.0
18/12:30am 9.4 6.7 5.8 78 1.7 SSW 9 9 5 5 1007.4 1006.9 0.0
18/12:00am 9.5 6.9 5.9 78 1.7 S 9 11 5 6 1007.5 1007.0 0.0
 
Date/Time
EDT
Temp
°C
App
Temp
°C
Dew
Point
Rel
Hum
%
Delta-T
°C
Wind Press
QNH
hPa
Press
MSL
hPa
Rain
since 9 am
mm
Dir
 
Spd
km/h
Gust
km/h
Spd
kts
Gust
kts
17/11:30pm 10.0 7.7 5.6 74 2.0 S 7 9 4 5 1007.7 1007.2 0.0
17/11:00pm 11.2 8.6 5.9 70 2.5 S 9 11 5 6 1008.1 1007.5 0.0
17/10:30pm 12.3 9.4 6.4 67 2.8 S 11 15 6 8 1008.2 1007.6 0.0
17/10:00pm 12.9 10.3 6.3 64 3.2 S 9 13 5 7 1008.1 1007.5 0.0
17/09:30pm 13.9 10.6 6.3 60 3.7 S 13 17 7 9 1008.1 1007.5 0.0
17/09:00pm 15.2 11.5 6.2 55 4.4 S 15 22 8 12 1008.0 1007.4 0.0
17/08:30pm 16.7 12.6 6.2 50 5.2 S 17 20 9 11 1007.5 1007.0 0.0
17/08:00pm 18.1 13.6 6.3 46 5.9 S 19 28 10 15 1007.3 1006.8 0.0
17/07:30pm 19.3 15.2 6.1 42 6.6 SSE 17 22 9 12 1006.9 1006.4 0.0
17/07:00pm 19.6 14.5 6.0 41 6.8 S 22 30 12 16 1006.9 1006.4 0.0
17/06:30pm 21.3 17.3 3.0 30 8.8 WSW 13 22 7 12 1006.7 1006.2 0.0
17/06:00pm 21.3 16.6 3.0 30 8.8 SW 17 30 9 16 1006.7 1006.2 0.0
17/05:30pm 21.8 16.7 3.0 29 9.0 WSW 19 30 10 16 1006.8 1006.3 0.0
17/05:00pm 21.1 18.2 2.4 29 8.9 SW 7 20 4 11 1007.0 1006.5 0.0
17/04:30pm 22.4 18.7 2.5 27 9.5 WSW 11 35 6 19 1006.9 1006.4 0.0
17/04:00pm 20.8 16.4 2.6 30 8.6 WSW 15 26 8 14 1007.1 1006.6 0.0
17/03:30pm 20.5 15.3 2.3 30 8.5 W 19 33 10 18 1007.6 1007.1 0.0
17/03:00pm 20.3 15.9 2.6 31 8.4 SSW 15 28 8 15 1008.0 1007.4 0.0
17/02:30pm 20.1 15.5 1.5 29 8.6 SW 15 28 8 15 1008.2 1007.6 0.0
17/02:00pm 19.4 14.1 1.9 31 8.1 SW 19 28 10 15 1008.5 1008.0 0.0
17/01:30pm 18.9 15.2 2.3 33 7.7 SW 11 24 6 13 1008.7 1008.2 0.0
17/01:00pm 20.5 16.6 3.3 32 8.3 SW 13 30 7 16 1009.0 1008.5 0.0
17/12:30pm 17.9 14.1 1.8 34 7.3 W 11 24 6 13 1009.2 1008.7 0.0
17/12:00pm 18.6 14.6 2.9 35 7.4 SW 13 28 7 15 1009.3 1008.8 0.0
17/11:30am 17.4 13.2 3.7 40 6.5 WSW 15 30 8 16 1009.3 1008.8 0.0
17/11:00am 16.4 12.0 2.8 40 6.3 WSW 15 24 8 13 1009.4 1008.9 0.0
17/10:30am 16.0 12.0 4.7 47 5.4 WSW 15 24 8 13 1009.6 1009.1 0.0
17/10:00am 15.5 12.1 3.9 46 5.4 W 11 19 6 10 1009.8 1009.3 0.0
17/09:30am 14.0 10.5 5.4 56 4.1 WSW 13 22 7 12 1009.9 1009.4 0.0
17/09:00am 14.0 11.2 7.1 63 3.4 W 11 17 6 9 1009.9 1009.4 0.6
17/08:30am 13.1 10.3 6.9 66 3.0 WNW 11 15 6 8 1009.9 1009.4 0.6
17/08:00am 11.7 9.0 7.4 75 2.1 WNW 11 15 6 8 1009.5 1009.0 0.6
17/07:30am 9.4 6.7 7.3 87 1.0 NW 11 13 6 7 1009.3 1008.8 0.6
17/07:00am 7.5 5.3 6.3 92 0.6 NW 7 9 4 5 1008.9 1008.4 0.6
17/06:30am 6.7 4.6 5.7 93 0.5 NW 6 7 3 4 1008.4 1007.9 0.6
17/06:00am 7.0 5.0 6.1 94 0.4 NW 6 6 3 3 1007.9 1007.3 0.6
17/05:30am 6.0 3.8 5.3 95 0.3 NW 6 7 3 4 1007.4 1006.9 0.6
17/05:00am 5.8 3.5 4.9 94 0.4 NW 6 7 3 4 1007.0 1006.5 0.6
17/04:30am 5.9 3.6 4.9 93 0.4 NW 6 6 3 3 1006.8 1006.3 0.6
17/04:00am 6.0 4.8 4.8 92 0.5 CALM 0 6 0 3 1006.9 1006.4 0.6
17/03:30am 6.3 4.0 4.9 91 0.6 NW 6 7 3 4 1006.7 1006.2 0.6
17/03:00am 6.6 3.8 5.1 90 0.7 NW 9 9 5 5 1006.7 1006.2 0.6
17/02:30am 7.1 4.6 4.9 86 1.0 NW 7 9 4 5 1006.8 1006.3 0.6
17/02:00am 8.6 6.4 6.2 85 1.1 NW 7 9 4 5 1006.8 1006.3 0.6
17/01:30am 8.0 5.7 5.5 84 1.1 NW 7 9 4 5 1006.9 1006.4 0.6
17/01:00am 9.5 6.5 6.0 79 1.6 WNW 11 15 6 8 1006.7 1006.2 0.6
17/12:30am 10.1 7.4 5.7 74 2.0 WNW 9 15 5 8 1006.5 1006.0 0.6
17/12:00am 10.1 7.4 5.5 73 2.1 WNW 9 13 5 7 1006.3 1005.8 0.6
 
Date/Time
EDT
Temp
°C
App
Temp
°C
Dew
Point
Rel
Hum
%
Delta-T
°C
Wind Press
QNH
hPa
Press
MSL
hPa
Rain
since 9 am
mm
Dir
 
Spd
km/h
Gust
km/h
Spd
kts
Gust
kts
16/11:30pm 10.3 7.1 5.3 71 2.3 W 11 17 6 9 1006.3 1005.8 0.6
16/11:00pm 11.2 7.5 6.1 71 2.4 W 15 24 8 13 1006.3 1005.8 0.6
16/10:30pm 12.1 6.9 5.7 65 3.0 WSW 22 39 12 21 1006.0 1005.5 0.6
16/10:00pm 12.5 6.6 5.9 64 3.2 WSW 26 35 14 19 1005.7 1005.2 0.6
16/09:30pm 12.9 7.2 5.1 59 3.7 WSW 24 33 13 18 1005.1 1004.6 0.6
16/09:00pm 13.5 7.4 4.9 56 4.1 WSW 26 46 14 25 1004.6 1004.1 0.6
16/08:30pm 14.0 8.1 5.6 57 4.0 WSW 26 44 14 24 1004.1 1003.5 0.6
16/08:14pm 14.6 8.2 5.1 53 4.5 WSW 28 46 15 25 1003.8 1003.2 0.6
16/08:00pm 15.0 8.3 5.8 54 4.5 WSW 30 46 16 25 1003.4 1002.8 0.6
16/07:30pm 15.1 7.7 5.0 51 4.8 W 33 57 18 31 1002.7 1002.2 0.6
16/07:26pm 15.6 8.6 5.8 52 4.8 W 32 57 17 31 1002.5 1002.0 0.6
16/07:00pm 15.0 9.6 8.0 63 3.6 W 26 39 14 21 1002.0 1001.5 0.6
16/06:30pm 12.9 4.3 8.0 72 2.4 WSW 43 67 23 36 1001.8 1001.3 0.6
16/06:24pm 12.0 4.0 5.9 66 2.9 W 37 67 20 36 1001.6 1001.1 0.6
16/06:00pm 17.3 9.3 7.4 52 5.1 W 39 61 21 33 1000.3 999.7 0.4
16/05:30pm 16.6 7.7 6.7 52 4.9 W 43 72 23 39 999.7 999.1 0.4
16/05:20pm 15.9 7.5 7.4 57 4.3 W 41 69 22 37 999.7 999.1 0.4
16/05:07pm 16.1 10.6 10.4 69 3.0 W 30 50 16 27 999.5 998.9 0.2
16/05:00pm 16.9 11.0 10.5 66 3.5 W 32 46 17 25 999.4 998.8 0.2
16/04:30pm 16.7 8.7 8.9 60 4.1 WNW 41 65 22 35 999.1 998.5 0.2
16/04:01pm 18.8 11.7 9.6 55 4.9 WNW 37 59 20 32 998.3 997.8 0.2
16/04:00pm 19.0 12.0 10.0 56 4.9 WNW 37 56 20 30 998.5 998.0 0.2
16/03:37pm 17.1 10.0 12.2 73 2.7 W 41 61 22 33 998.2 997.7 0.2
16/03:30pm 15.9 9.0 12.8 82 1.7 W 41 57 22 31 998.2 997.7 0.2
16/03:00pm 15.4 7.9 13.8 90 0.9 W 46 72 25 39 997.5 997.0 0.2
16/02:55pm 16.0 7.7 12.6 80 1.9 W 48 72 26 39 997.0 996.5 0.0
16/02:53pm 18.0 9.3 11.3 65 3.7 WNW 48 72 26 39 997.0 996.5 0.0
16/02:35pm 23.5 15.5 5.9 32 9.0 NW 37 56 20 30 995.3 994.7 0.0
16/02:30pm 23.8 16.2 5.7 31 9.3 WNW 35 46 19 25 995.3 994.7 0.0
16/02:00pm 23.6 15.1 3.0 26 10.1 WNW 37 57 20 31 995.6 995.0 0.0
16/01:56pm 23.9 16.7 3.2 26 10.1 WNW 30 52 16 28 995.3 994.7 0.0
16/01:30pm 25.0 17.3 2.4 23 11.0 WNW 32 48 17 26 995.3 994.7 0.0
16/01:23pm 25.1 18.2 2.5 23 11.0 NW 28 48 15 26 995.3 994.7 0.0
16/01:00pm 25.7 18.3 1.8 21 11.6 WNW 30 44 16 24 995.6 995.0 0.0
16/12:30pm 25.3 16.4 0.8 20 11.6 WNW 37 56 20 30 995.6 995.0 0.0
16/12:00pm 24.6 17.0 -2.0 17 12.0 WNW 28 46 15 25 995.9 995.3 0.0
16/11:54am 25.2 17.6 -2.4 16 12.3 WNW 28 46 15 25 995.9 995.3 0.0
16/11:30am 24.9 16.9 -2.6 16 12.2 NW 30 39 16 21 996.0 995.4 0.0
16/11:00am 24.7 18.1 -0.4 19 11.7 WNW 24 35 13 19 996.5 995.9 0.0
16/10:30am 23.4 15.3 -0.1 21 10.8 WNW 32 46 17 25 997.3 996.8 0.0
16/10:00am 22.7 16.5 4.2 30 9.2 WNW 26 37 14 20 997.6 997.1 0.0
16/09:30am 20.7 17.0 9.3 48 6.1 WNW 19 24 10 13 997.9 997.4 0.0
16/09:00am 17.4 16.5 12.5 73 2.8 NNW 9 13 5 7 997.3 996.8 0.0
16/08:30am 13.8 13.1 12.0 89 1.0 NNW 7 11 4 6 997.8 997.3 0.0
16/08:00am 11.6 10.7 11.4 99 0.1 NW 7 9 4 5 997.8 997.3 0.0
16/07:30am 11.4 9.7 11.2 99 0.1 W 11 13 6 7 997.5 997.0 0.0
16/07:00am 12.1 11.6 11.9 99 0.1 WNW 6 9 3 5 997.4 996.9 0.0
16/06:30am 12.3 10.9 12.3 100 0.0 W 11 17 6 9 998.3 997.8 0.0
16/06:00am 11.9 11.3 11.7 99 0.1 WSW 6 7 3 4 997.4 996.9 0.0
16/05:30am 12.3 11.6 12.1 99 0.1 WSW 7 9 4 5 997.0 996.5 0.0
16/05:00am 11.7 11.4 11.4 98 0.2 WSW 4 4 2 2 997.0 996.5 0.0
16/04:30am 10.8 10.6 10.5 98 0.2 WSW 2 4 1 2 996.9 996.4 0.0
16/04:00am 9.7 9.6 9.4 98 0.2 CALM 0 0 0 0 997.5 997.0 0.0
16/03:30am 10.4 10.0 9.9 97 0.3 WSW 2 6 1 3 997.8 997.3 0.0
16/03:00am 11.2 10.1 10.7 97 0.3 WSW 7 7 4 4 998.2 997.7 0.0
16/02:30am 11.5 10.7 10.9 96 0.3 WSW 6 9 3 5 998.8 998.2 0.0
16/02:00am 11.9 12.3 11.1 95 0.4 CALM 0 0 0 0 999.3 998.7 0.0
16/01:30am 11.9 11.9 11.0 94 0.5 SSE 2 6 1 3 999.8 999.2 0.0
16/01:00am 11.8 10.9 10.5 92 0.7 SSE 6 6 3 3 1000.1 999.5 0.0
16/12:30am 12.6 11.6 11.0 90 0.8 SSE 7 9 4 5 1000.7 1000.2 0.0
16/12:00am 13.2 12.3 11.4 89 1.0 SSE 7 9 4 5 1001.1 1000.6 0.0
 
Date/Time
EDT
Temp
°C
App
Temp
°C
Dew
Point
Rel
Hum
%
Delta-T
°C
Wind Press
QNH
hPa
Press
MSL
hPa
Rain
since 9 am
mm
Dir
 
Spd
km/h
Gust
km/h
Spd
kts
Gust
kts
15/11:30pm 13.8 12.6 11.7 87 1.1 SSE 9 11 5 6 1001.4 1000.9 0.0
15/11:00pm 14.6 12.7 11.9 84 1.5 SSE 13 17 7 9 1001.5 1001.0 0.0
15/10:30pm 15.4 13.6 12.2 81 1.8 SSE 13 19 7 10 1002.0 1001.5 0.0
15/10:00pm 15.9 13.7 12.1 78 2.1 SE 15 24 8 13 1002.1 1001.6 0.0
15/09:30pm 16.9 14.7 12.2 74 2.6 SE 15 20 8 11 1002.2 1001.7 0.0
15/09:00pm 17.9 15.4 12.4 70 3.1 SE 17 22 9 12 1002.2 1001.7 0.0
15/08:30pm 19.4 16.5 12.4 64 4.0 ESE 19 26 10 14 1002.1 1001.6 0.0
15/08:00pm 21.7 18.0 12.8 57 5.1 ESE 24 33 13 18 1002.0 1001.5 0.0
15/07:30pm 24.1 20.5 13.0 50 6.5 ESE 24 32 13 17 1001.9 1001.4 0.0
15/07:00pm 25.6 22.0 13.1 46 7.4 ESE 24 33 13 18 1002.0 1001.5 0.0
15/06:30pm 26.9 23.6 12.9 42 8.3 SE 22 30 12 16 1001.8 1001.3 0.0
15/06:00pm 28.8 26.3 10.9 33 10.4 SE 15 24 8 13 1001.9 1001.4 0.0
15/05:30pm 29.1 26.9 9.3 29 11.1 SSE 11 22 6 12 1002.3 1001.8 0.0
15/05:00pm 29.0 24.7 5.1 22 12.6 SSE 17 26 9 14 1002.8 1002.3 0.0
15/04:30pm 29.8 25.7 4.4 20 13.2 S 15 26 8 14 1002.9 1002.4 0.0
15/04:00pm 29.6 27.1 5.0 21 13.0 ESE 7 13 4 7 1003.5 1002.9 0.0
15/03:30pm 28.6 26.3 4.8 22 12.4 WNW 6 13 3 7 1004.0 1003.4 0.0
15/03:00pm 28.8 25.7 5.6 23 12.3 S 11 20 6 11 1004.7 1004.2 0.0
15/02:30pm 27.1 25.0 6.0 26 11.1 ENE 6 11 3 6 1005.1 1004.6 0.0
15/02:00pm 26.8 24.8 6.2 27 10.9 SE 6 11 3 6 1005.7 1005.2 0.0
15/01:30pm 26.3 24.4 7.4 30 10.1 E 7 17 4 9 1006.2 1005.7 0.0
15/01:00pm 24.9 23.1 8.0 34 9.1 SE 7 17 4 9 1006.9 1006.4 0.0
15/12:30pm 24.8 22.8 8.7 36 8.8 ESE 9 15 5 8 1007.3 1006.8 0.0
15/12:00pm 23.4 21.9 9.0 40 7.8 SSW 7 13 4 7 1007.9 1007.3 0.0
15/11:30am 22.3 21.0 9.8 45 6.8 SSE 7 15 4 8 1008.2 1007.6 0.0
15/11:00am 20.9 19.3 10.1 50 5.9 ESE 9 17 5 9 1008.6 1008.1 0.0
15/10:30am 20.5 18.7 10.9 54 5.3 SE 11 20 6 11 1009.0 1008.5 0.0

Other Formats:

Comma delimited format used in spreadsheet applications
http://www.bom.gov.au/fwo/IDV60801/IDV60801.95840.axf

JavaScript Object Notation format (JSON) in row-major order
http://www.bom.gov.au/fwo/IDV60801/IDV60801.95840.json